sensor_id;sensor_type;location;lat;lon;timestamp;pressure;altitude;pressure_sealevel;temperature;humidity
68654;BME280;55636;51.108;13.622;2023-02-13T00:00:43;102535.88;;;5.68;71.46
68654;BME280;55636;51.108;13.622;2023-02-13T00:01:45;102535.03;;;5.68;71.45
68654;BME280;55636;51.108;13.622;2023-02-13T00:02:47;102542.19;;;5.69;71.41
68654;BME280;55636;51.108;13.622;2023-02-13T00:03:50;102541.16;;;5.70;71.46
68654;BME280;55636;51.108;13.622;2023-02-13T00:04:53;102537.41;;;5.71;71.49
68654;BME280;55636;51.108;13.622;2023-02-13T00:05:56;102540.16;;;5.71;71.37
68654;BME280;55636;51.108;13.622;2023-02-13T00:06:59;102541.00;;;5.71;71.39
68654;BME280;55636;51.108;13.622;2023-02-13T00:08:01;102538.25;;;5.71;71.35
68654;BME280;55636;51.108;13.622;2023-02-13T00:09:07;102541.00;;;5.71;71.32
68654;BME280;55636;51.108;13.622;2023-02-13T00:10:12;102528.16;;;5.72;71.43
68654;BME280;55636;51.108;13.622;2023-02-13T00:11:15;102533.63;;;5.72;71.45
68654;BME280;55636;51.108;13.622;2023-02-13T00:12:17;102531.75;;;5.72;71.48
68654;BME280;55636;51.108;13.622;2023-02-13T00:13:19;102534.47;;;5.72;71.51
68654;BME280;55636;51.108;13.622;2023-02-13T00:14:22;102532.63;;;5.73;71.40
68654;BME280;55636;51.108;13.622;2023-02-13T00:15:25;102523.50;;;5.72;71.45
68654;BME280;55636;51.108;13.622;2023-02-13T00:16:28;102530.72;;;5.73;71.57
68654;BME280;55636;51.108;13.622;2023-02-13T00:17:30;102527.97;;;5.73;71.45
68654;BME280;55636;51.108;13.622;2023-02-13T00:18:35;102528.63;;;5.76;71.42
68654;BME280;55636;51.108;13.622;2023-02-13T00:19:38;102521.47;;;5.74;71.42
68654;BME280;55636;51.108;13.622;2023-02-13T00:20:42;102522.31;;;5.75;71.44
68654;BME280;55636;51.108;13.622;2023-02-13T00:21:44;102520.41;;;5.76;71.49
68654;BME280;55636;51.108;13.622;2023-02-13T00:22:46;102520.41;;;5.76;71.44
68654;BME280;55636;51.108;13.622;2023-02-13T00:23:50;102526.75;;;5.76;71.52
68654;BME280;55636;51.108;13.622;2023-02-13T00:24:52;102524.88;;;5.77;71.57
68654;BME280;55636;51.108;13.622;2023-02-13T00:25:55;102523.00;;;5.77;71.55
68654;BME280;55636;51.108;13.622;2023-02-13T00:26:59;102523.00;;;5.77;71.62
68654;BME280;55636;51.108;13.622;2023-02-13T00:28:03;102531.03;;;5.79;71.63
68654;BME280;55636;51.108;13.622;2023-02-13T00:29:06;102531.88;;;5.79;71.63
68654;BME280;55636;51.108;13.622;2023-02-13T00:30:09;102523.66;;;5.79;71.71
68654;BME280;55636;51.108;13.622;2023-02-13T00:31:14;102523.66;;;5.79;71.60
68654;BME280;55636;51.108;13.622;2023-02-13T00:32:17;102526.41;;;5.79;71.63
68654;BME280;55636;51.108;13.622;2023-02-13T00:33:22;102524.34;;;5.81;71.69
68654;BME280;55636;51.108;13.622;2023-02-13T00:34:26;102521.59;;;5.81;71.59
68654;BME280;55636;51.108;13.622;2023-02-13T00:35:29;102526.06;;;5.82;71.54
68654;BME280;55636;51.108;13.622;2023-02-13T00:36:32;102523.34;;;5.82;71.48
68654;BME280;55636;51.108;13.622;2023-02-13T00:37:35;102529.66;;;5.83;71.47
68654;BME280;55636;51.108;13.622;2023-02-13T00:38:38;102533.94;;;5.85;71.28
68654;BME280;55636;51.108;13.622;2023-02-13T00:39:41;102530.34;;;5.85;71.40
68654;BME280;55636;51.108;13.622;2023-02-13T00:40:44;102519.38;;;5.85;71.40
68654;BME280;55636;51.108;13.622;2023-02-13T00:41:46;102524.69;;;5.86;71.44
68654;BME280;55636;51.108;13.622;2023-02-13T00:42:48;102521.94;;;5.86;71.33
68654;BME280;55636;51.108;13.622;2023-02-13T00:43:51;102524.69;;;5.86;71.43
68654;BME280;55636;51.108;13.622;2023-02-13T00:44:53;102529.16;;;5.87;71.36
68654;BME280;55636;51.108;13.622;2023-02-13T00:45:57;102539.94;;;5.89;71.33
68654;BME280;55636;51.108;13.622;2023-02-13T00:47:00;102526.41;;;5.87;71.38
68654;BME280;55636;51.108;13.622;2023-02-13T00:48:03;102528.97;;;5.89;71.33
68654;BME280;55636;51.108;13.622;2023-02-13T00:49:05;102523.66;;;5.87;71.36
68654;BME280;55636;51.108;13.622;2023-02-13T00:50:09;102525.34;;;5.88;71.38
68654;BME280;55636;51.108;13.622;2023-02-13T00:51:12;102530.00;;;5.88;71.40
68654;BME280;55636;51.108;13.622;2023-02-13T00:52:14;102523.47;;;5.89;71.30
68654;BME280;55636;51.108;13.622;2023-02-13T00:53:22;102528.97;;;5.89;71.36
68654;BME280;55636;51.108;13.622;2023-02-13T00:54:24;102524.31;;;5.89;71.39
68654;BME280;55636;51.108;13.622;2023-02-13T00:55:27;102520.56;;;5.90;71.29
68654;BME280;55636;51.108;13.622;2023-02-13T00:56:30;102524.13;;;5.91;71.29
68654;BME280;55636;51.108;13.622;2023-02-13T00:57:35;102520.56;;;5.90;71.33
68654;BME280;55636;51.108;13.622;2023-02-13T00:58:37;102521.38;;;5.91;71.31
68654;BME280;55636;51.108;13.622;2023-02-13T00:59:41;102525.84;;;5.92;71.36
68654;BME280;55636;51.108;13.622;2023-02-13T01:00:53;102525.84;;;5.92;71.55
68654;BME280;55636;51.108;13.622;2023-02-13T01:01:56;102529.47;;;5.93;71.53
68654;BME280;55636;51.108;13.622;2023-02-13T01:02:58;102525.66;;;5.94;71.66
68654;BME280;55636;51.108;13.622;2023-02-13T01:04:03;102531.00;;;5.95;71.52
68654;BME280;55636;51.108;13.622;2023-02-13T01:05:06;102525.53;;;5.95;71.54
68654;BME280;55636;51.108;13.622;2023-02-13T01:06:08;102533.75;;;5.95;71.59
68654;BME280;55636;51.108;13.622;2023-02-13T01:07:11;102522.78;;;5.95;71.80
68654;BME280;55636;51.108;13.622;2023-02-13T01:08:14;102530.81;;;5.97;71.57
68654;BME280;55636;51.108;13.622;2023-02-13T01:09:17;102531.84;;;5.96;71.61
68654;BME280;55636;51.108;13.622;2023-02-13T01:10:20;102534.41;;;5.97;71.58
68654;BME280;55636;51.108;13.622;2023-02-13T01:11:22;102526.19;;;5.97;71.56
68654;BME280;55636;51.108;13.622;2023-02-13T01:12:26;102533.38;;;5.98;71.63
68654;BME280;55636;51.108;13.622;2023-02-13T01:13:28;102524.31;;;5.98;71.62
68654;BME280;55636;51.108;13.622;2023-02-13T01:14:31;102525.81;;;6.00;71.62
68654;BME280;55636;51.108;13.622;2023-02-13T01:15:34;102532.19;;;6.01;71.51
68654;BME280;55636;51.108;13.622;2023-02-13T01:16:36;102532.19;;;6.01;71.61
68654;BME280;55636;51.108;13.622;2023-02-13T01:17:39;102531.16;;;6.02;71.56
68654;BME280;55636;51.108;13.622;2023-02-13T01:18:41;102527.53;;;6.01;71.50
68654;BME280;55636;51.108;13.622;2023-02-13T01:19:43;102531.16;;;6.02;71.49
68654;BME280;55636;51.108;13.622;2023-02-13T01:21:04;102530.09;;;6.03;71.49
68654;BME280;55636;51.108;13.622;2023-02-13T01:22:08;102524.59;;;6.03;71.51
68654;BME280;55636;51.108;13.622;2023-02-13T01:23:11;102525.47;;;6.03;71.42
68654;BME280;55636;51.108;13.622;2023-02-13T01:24:13;102532.00;;;6.02;71.33
68654;BME280;55636;51.108;13.622;2023-02-13T01:25:16;102529.06;;;6.04;71.39
68654;BME280;55636;51.108;13.622;2023-02-13T01:26:20;102527.84;;;6.06;71.33
68654;BME280;55636;51.108;13.622;2023-02-13T01:27:24;102521.72;;;6.04;71.29
68654;BME280;55636;51.108;13.622;2023-02-13T01:28:27;102529.75;;;6.06;71.28
68654;BME280;55636;51.108;13.622;2023-02-13T01:29:29;102525.28;;;6.05;71.28
68654;BME280;55636;51.108;13.622;2023-02-13T01:30:32;102518.78;;;6.06;71.23
68654;BME280;55636;51.108;13.622;2023-02-13T01:31:35;102525.13;;;6.06;71.24
68654;BME280;55636;51.108;13.622;2023-02-13T01:32:41;102530.59;;;6.06;71.29
68654;BME280;55636;51.108;13.622;2023-02-13T01:33:45;102522.38;;;6.06;71.26
68654;BME280;55636;51.108;13.622;2023-02-13T01:34:47;102521.53;;;6.06;71.32
68654;BME280;55636;51.108;13.622;2023-02-13T01:35:51;102524.94;;;6.08;71.34
68654;BME280;55636;51.108;13.622;2023-02-13T01:36:54;102520.50;;;6.07;71.28
68654;BME280;55636;51.108;13.622;2023-02-13T01:37:58;102515.84;;;6.07;71.31
68654;BME280;55636;51.108;13.622;2023-02-13T01:39:01;102515.84;;;6.07;71.31
68654;BME280;55636;51.108;13.622;2023-02-13T01:40:06;102523.06;;;6.09;71.29
68654;BME280;55636;51.108;13.622;2023-02-13T01:41:12;102512.09;;;6.09;71.37
68654;BME280;55636;51.108;13.622;2023-02-13T01:42:25;102516.53;;;6.10;71.42
68654;BME280;55636;51.108;13.622;2023-02-13T01:43:47;102512.94;;;6.09;71.46
68654;BME280;55636;51.108;13.622;2023-02-13T01:44:53;102515.47;;;6.11;71.36
68654;BME280;55636;51.108;13.622;2023-02-13T01:45:56;102515.47;;;6.11;71.33
68654;BME280;55636;51.108;13.622;2023-02-13T01:46:59;102516.34;;;6.11;71.33
68654;BME280;55636;51.108;13.622;2023-02-13T01:48:06;102522.69;;;6.12;71.39
68654;BME280;55636;51.108;13.622;2023-02-13T01:49:12;102512.59;;;6.12;71.28
68654;BME280;55636;51.108;13.622;2023-02-13T01:50:23;102515.34;;;6.12;71.28
68654;BME280;55636;51.108;13.622;2023-02-13T01:51:30;102519.94;;;6.12;71.31
68654;BME280;55636;51.108;13.622;2023-02-13T01:52:40;102510.88;;;6.11;71.23
68654;BME280;55636;51.108;13.622;2023-02-13T01:54:00;102511.53;;;6.13;71.33
68654;BME280;55636;51.108;13.622;2023-02-13T01:55:05;102507.94;;;6.13;71.23
68654;BME280;55636;51.108;13.622;2023-02-13T01:56:16;102510.69;;;6.13;71.20
68654;BME280;55636;51.108;13.622;2023-02-13T01:57:22;102518.75;;;6.14;71.20
68654;BME280;55636;51.108;13.622;2023-02-13T01:58:30;102513.25;;;6.14;71.19
68654;BME280;55636;51.108;13.622;2023-02-13T01:59:56;102516.88;;;6.15;71.24
68654;BME280;55636;51.108;13.622;2023-02-13T02:01:02;102515.16;;;6.14;71.16
68654;BME280;55636;51.108;13.622;2023-02-13T02:02:05;102512.22;;;6.15;71.13
68654;BME280;55636;51.108;13.622;2023-02-13T02:03:12;102507.94;;;6.13;71.22
68654;BME280;55636;51.108;13.622;2023-02-13T02:04:20;102508.78;;;6.13;71.32
68654;BME280;55636;51.108;13.622;2023-02-13T02:05:27;102512.22;;;6.15;71.23
68654;BME280;55636;51.108;13.622;2023-02-13T02:06:36;102514.13;;;6.15;71.19
68654;BME280;55636;51.108;13.622;2023-02-13T02:07:40;102514.13;;;6.15;71.12
68654;BME280;55636;51.108;13.622;2023-02-13T02:08:43;102512.22;;;6.15;71.21
68654;BME280;55636;51.108;13.622;2023-02-13T02:09:55;102514.78;;;6.17;71.19
68654;BME280;55636;51.108;13.622;2023-02-13T02:11:05;102506.72;;;6.15;71.20
68654;BME280;55636;51.108;13.622;2023-02-13T02:12:17;102509.47;;;6.15;71.18
68654;BME280;55636;51.108;13.622;2023-02-13T02:13:22;102509.28;;;6.17;70.95
68654;BME280;55636;51.108;13.622;2023-02-13T02:14:26;102510.16;;;6.17;71.23
68654;BME280;55636;51.108;13.622;2023-02-13T02:15:31;102503.81;;;6.17;71.37
68654;BME280;55636;51.108;13.622;2023-02-13T02:16:33;102506.53;;;6.17;71.20
68654;BME280;55636;51.108;13.622;2023-02-13T02:17:39;102503.63;;;6.18;71.15
68654;BME280;55636;51.108;13.622;2023-02-13T02:18:41;102502.78;;;6.18;71.14
68654;BME280;55636;51.108;13.622;2023-02-13T02:25:06;102505.16;;;6.21;71.07
68654;BME280;55636;51.108;13.622;2023-02-13T02:33:37;102501.56;;;6.20;70.87
68654;BME280;55636;51.108;13.622;2023-02-13T02:36:34;102502.59;;;6.19;70.83
68654;BME280;55636;51.108;13.622;2023-02-13T02:39:23;102497.09;;;6.19;70.86
68654;BME280;55636;51.108;13.622;2023-02-13T02:40:38;102498.13;;;6.18;70.90
68654;BME280;55636;51.108;13.622;2023-02-13T02:46:21;102502.59;;;6.19;70.96
68654;BME280;55636;51.108;13.622;2023-02-13T02:47:50;102500.03;;;6.18;70.88
68654;BME280;55636;51.108;13.622;2023-02-13T02:49:17;102498.13;;;6.18;70.79
68654;BME280;55636;51.108;13.622;2023-02-13T02:50:41;102501.94;;;6.17;70.76
68654;BME280;55636;51.108;13.622;2023-02-13T02:53:05;102504.69;;;6.17;70.84
68654;BME280;55636;51.108;13.622;2023-02-13T02:56:02;102505.72;;;6.16;70.86
68654;BME280;55636;51.108;13.622;2023-02-13T02:57:15;102505.53;;;6.18;70.89
68654;BME280;55636;51.108;13.622;2023-02-13T02:58:59;102502.97;;;6.16;71.01
68654;BME280;55636;51.108;13.622;2023-02-13T03:00:24;102501.94;;;6.17;70.85
68654;BME280;55636;51.108;13.622;2023-02-13T03:01:53;102507.41;;;6.17;70.78
68654;BME280;55636;51.108;13.622;2023-02-13T03:03:19;102511.19;;;6.16;70.83
68654;BME280;55636;51.108;13.622;2023-02-13T03:04:50;102513.94;;;6.16;70.84
68654;BME280;55636;51.108;13.622;2023-02-13T03:06:16;102520.28;;;6.17;70.97
68654;BME280;55636;51.108;13.622;2023-02-13T03:07:23;102514.78;;;6.17;70.86
68654;BME280;55636;51.108;13.622;2023-02-13T03:08:27;102509.28;;;6.17;70.87
68654;BME280;55636;51.108;13.622;2023-02-13T03:09:52;102508.44;;;6.16;70.86
68654;BME280;55636;51.108;13.622;2023-02-13T03:11:17;102506.53;;;6.17;70.90
68654;BME280;55636;51.108;13.622;2023-02-13T03:12:51;102512.03;;;6.17;70.81
68654;BME280;55636;51.108;13.622;2023-02-13T03:14:19;102510.31;;;6.16;70.77
68654;BME280;55636;51.108;13.622;2023-02-13T03:15:24;102511.19;;;6.16;70.77
68654;BME280;55636;51.108;13.622;2023-02-13T03:16:30;102509.47;;;6.15;70.84
68654;BME280;55636;51.108;13.622;2023-02-13T03:17:52;102506.72;;;6.15;70.90
68654;BME280;55636;51.108;13.622;2023-02-13T03:21:11;102513.94;;;6.16;70.86
68654;BME280;55636;51.108;13.622;2023-02-13T03:24:06;102504.00;;;6.15;70.86
68654;BME280;55636;51.108;13.622;2023-02-13T03:25:18;102516.00;;;6.14;70.90
68654;BME280;55636;51.108;13.622;2023-02-13T03:26:37;102506.72;;;6.15;70.93
68654;BME280;55636;51.108;13.622;2023-02-13T03:29:47;102509.66;;;6.14;70.89
68654;BME280;55636;51.108;13.622;2023-02-13T03:32:40;102508.63;;;6.15;70.90
68654;BME280;55636;51.108;13.622;2023-02-13T03:35:11;102511.38;;;6.15;71.09
68654;BME280;55636;51.108;13.622;2023-02-13T03:38:43;102514.28;;;6.13;71.19
68654;BME280;55636;51.108;13.622;2023-02-13T03:41:17;102514.28;;;6.13;71.15
68654;BME280;55636;51.108;13.622;2023-02-13T03:42:49;102506.03;;;6.13;71.24
68654;BME280;55636;51.108;13.622;2023-02-13T03:44:21;102513.44;;;6.13;71.29
68654;BME280;55636;51.108;13.622;2023-02-13T03:45:31;102511.72;;;6.12;71.13
68654;BME280;55636;51.108;13.622;2023-02-13T03:46:57;102524.41;;;6.13;71.10
68654;BME280;55636;51.108;13.622;2023-02-13T03:48:04;102520.81;;;6.12;71.05
68654;BME280;55636;51.108;13.622;2023-02-13T03:49:17;102523.56;;;6.12;71.21
68654;BME280;55636;51.108;13.622;2023-02-13T03:50:42;102521.84;;;6.11;71.13
68654;BME280;55636;51.108;13.622;2023-02-13T03:51:52;102525.44;;;6.12;71.06
68654;BME280;55636;51.108;13.622;2023-02-13T03:53:01;102526.31;;;6.12;71.10
68654;BME280;55636;51.108;13.622;2023-02-13T03:54:16;102517.19;;;6.12;71.11
68654;BME280;55636;51.108;13.622;2023-02-13T03:55:24;102522.69;;;6.12;71.14
68654;BME280;55636;51.108;13.622;2023-02-13T03:56:49;102521.84;;;6.11;71.21
68654;BME280;55636;51.108;13.622;2023-02-13T03:58:21;102519.94;;;6.12;71.11
68654;BME280;55636;51.108;13.622;2023-02-13T03:59:43;102522.50;;;6.13;71.02
68654;BME280;55636;51.108;13.622;2023-02-13T04:00:50;102517.03;;;6.13;71.21
68654;BME280;55636;51.108;13.622;2023-02-13T04:02:11;102519.94;;;6.12;71.34
68654;BME280;55636;51.108;13.622;2023-02-13T04:03:26;102510.88;;;6.11;71.38
68654;BME280;55636;51.108;13.622;2023-02-13T04:05:41;102519.94;;;6.12;71.29
68654;BME280;55636;51.108;13.622;2023-02-13T04:07:50;102524.59;;;6.11;71.12
68654;BME280;55636;51.108;13.622;2023-02-13T04:08:52;102527.34;;;6.11;71.15
68654;BME280;55636;51.108;13.622;2023-02-13T04:09:57;102529.22;;;6.11;71.20
68654;BME280;55636;51.108;13.622;2023-02-13T04:11:12;102526.47;;;6.11;71.24
68654;BME280;55636;51.108;13.622;2023-02-13T04:12:24;102522.88;;;6.10;71.28
68654;BME280;55636;51.108;13.622;2023-02-13T04:13:36;102520.97;;;6.11;71.35
68654;BME280;55636;51.108;13.622;2023-02-13T04:14:47;102523.72;;;6.11;71.18
68654;BME280;55636;51.108;13.622;2023-02-13T04:15:57;102520.97;;;6.11;71.28
68654;BME280;55636;51.108;13.622;2023-02-13T04:17:06;102511.91;;;6.10;71.23
68654;BME280;55636;51.108;13.622;2023-02-13T04:18:14;102528.38;;;6.10;71.10
68654;BME280;55636;51.108;13.622;2023-02-13T04:19:18;102520.13;;;6.10;71.19
68654;BME280;55636;51.108;13.622;2023-02-13T04:20:21;102520.31;;;6.09;71.18
68654;BME280;55636;51.108;13.622;2023-02-13T04:21:32;102525.63;;;6.10;71.17
68654;BME280;55636;51.108;13.622;2023-02-13T04:22:41;102518.41;;;6.09;71.19
68654;BME280;55636;51.108;13.622;2023-02-13T04:23:43;102523.06;;;6.09;71.23
68654;BME280;55636;51.108;13.622;2023-02-13T04:24:46;102527.53;;;6.10;71.22
68654;BME280;55636;51.108;13.622;2023-02-13T04:25:51;102527.69;;;6.08;71.08
68654;BME280;55636;51.108;13.622;2023-02-13T04:26:55;102531.28;;;6.09;71.19
68654;BME280;55636;51.108;13.622;2023-02-13T04:27:59;102526.66;;;6.09;71.09
68654;BME280;55636;51.108;13.622;2023-02-13T04:29:03;102525.81;;;6.09;71.09
68654;BME280;55636;51.108;13.622;2023-02-13T04:30:06;102529.56;;;6.07;71.07
68654;BME280;55636;51.108;13.622;2023-02-13T04:31:10;102519.44;;;6.08;71.09
68654;BME280;55636;51.108;13.622;2023-02-13T04:32:12;102526.84;;;6.07;71.13
68654;BME280;55636;51.108;13.622;2023-02-13T04:33:18;102527.69;;;6.08;71.06
68654;BME280;55636;51.108;13.622;2023-02-13T04:34:20;102524.94;;;6.08;71.25
68654;BME280;55636;51.108;13.622;2023-02-13T04:35:22;102521.53;;;6.06;70.98
68654;BME280;55636;51.108;13.622;2023-02-13T04:36:25;102515.00;;;6.07;70.99
68654;BME280;55636;51.108;13.622;2023-02-13T04:37:28;102516.03;;;6.06;71.05
68654;BME280;55636;51.108;13.622;2023-02-13T04:38:30;102524.94;;;6.08;71.01
68654;BME280;55636;51.108;13.622;2023-02-13T04:39:33;102524.28;;;6.06;70.98
68654;BME280;55636;51.108;13.622;2023-02-13T04:40:35;102516.88;;;6.06;70.93
68654;BME280;55636;51.108;13.622;2023-02-13T04:41:37;102518.78;;;6.06;70.83
68654;BME280;55636;51.108;13.622;2023-02-13T04:42:39;102517.91;;;6.05;70.97
68654;BME280;55636;51.108;13.622;2023-02-13T04:43:42;102517.91;;;6.05;71.06
68654;BME280;55636;51.108;13.622;2023-02-13T04:44:44;102517.06;;;6.05;71.10
68654;BME280;55636;51.108;13.622;2023-02-13T04:45:48;102523.41;;;6.05;70.97
68654;BME280;55636;51.108;13.622;2023-02-13T04:46:50;102517.06;;;6.05;70.92
68654;BME280;55636;51.108;13.622;2023-02-13T04:47:56;102516.22;;;6.04;71.01
68654;BME280;55636;51.108;13.622;2023-02-13T04:48:58;102516.22;;;6.04;70.98
68654;BME280;55636;51.108;13.622;2023-02-13T04:50:00;102518.97;;;6.04;71.04
68654;BME280;55636;51.108;13.622;2023-02-13T04:51:05;102511.75;;;6.03;71.05
68654;BME280;55636;51.108;13.622;2023-02-13T04:52:07;102509.84;;;6.04;70.93
68654;BME280;55636;51.108;13.622;2023-02-13T04:53:09;102517.25;;;6.03;71.03
68654;BME280;55636;51.108;13.622;2023-02-13T04:54:13;102514.50;;;6.03;70.99
68654;BME280;55636;51.108;13.622;2023-02-13T04:55:15;102516.38;;;6.03;71.07
68654;BME280;55636;51.108;13.622;2023-02-13T04:56:17;102507.28;;;6.02;70.96
68654;BME280;55636;51.108;13.622;2023-02-13T04:57:21;102511.06;;;6.01;71.00
68654;BME280;55636;51.108;13.622;2023-02-13T04:58:23;102500.97;;;6.02;70.97
68654;BME280;55636;51.108;13.622;2023-02-13T04:59:25;102512.97;;;6.01;70.95
68654;BME280;55636;51.108;13.622;2023-02-13T05:00:29;102509.34;;;6.00;70.91
68654;BME280;55636;51.108;13.622;2023-02-13T05:01:32;102509.34;;;6.00;71.01
68654;BME280;55636;51.108;13.622;2023-02-13T05:02:36;102512.09;;;6.00;71.01
68654;BME280;55636;51.108;13.622;2023-02-13T05:03:40;102513.16;;;5.99;71.00
68654;BME280;55636;51.108;13.622;2023-02-13T05:04:43;102516.09;;;5.98;70.89
68654;BME280;55636;51.108;13.622;2023-02-13T05:05:47;102509.53;;;5.99;70.91
68654;BME280;55636;51.108;13.622;2023-02-13T05:06:51;102509.72;;;5.97;71.02
68654;BME280;55636;51.108;13.622;2023-02-13T05:07:53;102508.00;;;5.96;71.13
68654;BME280;55636;51.108;13.622;2023-02-13T05:08:56;102512.47;;;5.97;71.15
68654;BME280;55636;51.108;13.622;2023-02-13T05:09:58;102509.72;;;5.97;71.06
68654;BME280;55636;51.108;13.622;2023-02-13T05:11:01;102505.25;;;5.96;71.09
68654;BME280;55636;51.108;13.622;2023-02-13T05:12:04;102509.91;;;5.96;71.06
68654;BME280;55636;51.108;13.622;2023-02-13T05:13:07;102517.09;;;5.97;71.15
68654;BME280;55636;51.108;13.622;2023-02-13T05:14:10;102503.56;;;5.95;71.11
68654;BME280;55636;51.108;13.622;2023-02-13T05:15:12;102511.81;;;5.95;71.10
68654;BME280;55636;51.108;13.622;2023-02-13T05:16:14;102511.94;;;5.94;71.17
68654;BME280;55636;51.108;13.622;2023-02-13T05:17:17;102507.34;;;5.94;71.13
68654;BME280;55636;51.108;13.622;2023-02-13T05:18:19;102509.22;;;5.94;71.13
68654;BME280;55636;51.108;13.622;2023-02-13T05:19:21;102513.84;;;5.93;71.17
68654;BME280;55636;51.108;13.622;2023-02-13T05:20:24;102511.94;;;5.94;71.31
68654;BME280;55636;51.108;13.622;2023-02-13T05:21:26;102519.16;;;5.95;71.31
68654;BME280;55636;51.108;13.622;2023-02-13T05:22:49;102521.91;;;5.95;71.26
68654;BME280;55636;51.108;13.622;2023-02-13T05:24:10;102515.75;;;5.93;71.27
68654;BME280;55636;51.108;13.622;2023-02-13T05:25:12;102518.50;;;5.93;71.29
68654;BME280;55636;51.108;13.622;2023-02-13T05:26:15;102525.66;;;5.94;71.35
68654;BME280;55636;51.108;13.622;2023-02-13T05:27:17;102515.75;;;5.93;71.28
68654;BME280;55636;51.108;13.622;2023-02-13T05:28:19;102522.94;;;5.94;71.43
68654;BME280;55636;51.108;13.622;2023-02-13T05:29:40;102518.50;;;5.93;71.28
68654;BME280;55636;51.108;13.622;2023-02-13T05:30:42;102523.09;;;5.92;71.23
68654;BME280;55636;51.108;13.622;2023-02-13T05:31:45;102525.00;;;5.92;71.28
68654;BME280;55636;51.108;13.622;2023-02-13T05:32:48;102522.25;;;5.92;71.24
68654;BME280;55636;51.108;13.622;2023-02-13T05:33:53;102518.84;;;5.89;71.30
68654;BME280;55636;51.108;13.622;2023-02-13T05:34:56;102524.13;;;5.91;71.38
68654;BME280;55636;51.108;13.622;2023-02-13T05:35:58;102519.72;;;5.90;71.35
68654;BME280;55636;51.108;13.622;2023-02-13T05:37:01;102518.84;;;5.89;71.36
68654;BME280;55636;51.108;13.622;2023-02-13T05:38:07;102518.84;;;5.89;71.56
68654;BME280;55636;51.108;13.622;2023-02-13T05:39:09;102516.09;;;5.89;71.45
68654;BME280;55636;51.108;13.622;2023-02-13T05:40:13;102518.84;;;5.89;71.42
68654;BME280;55636;51.108;13.622;2023-02-13T05:41:16;102514.38;;;5.88;71.36
68654;BME280;55636;51.108;13.622;2023-02-13T05:42:18;102517.13;;;5.88;71.47
68654;BME280;55636;51.108;13.622;2023-02-13T05:43:20;102511.63;;;5.88;71.46
68654;BME280;55636;51.108;13.622;2023-02-13T05:44:22;102519.00;;;5.88;71.36
68654;BME280;55636;51.108;13.622;2023-02-13T05:45:25;102515.44;;;5.87;71.34
68654;BME280;55636;51.108;13.622;2023-02-13T05:46:27;102515.44;;;5.87;71.41
68654;BME280;55636;51.108;13.622;2023-02-13T05:47:29;102518.16;;;5.87;71.48
68654;BME280;55636;51.108;13.622;2023-02-13T05:48:31;102515.25;;;5.89;71.45
68654;BME280;55636;51.108;13.622;2023-02-13T05:49:35;102522.59;;;5.88;71.40
68654;BME280;55636;51.108;13.622;2023-02-13T05:50:37;102516.28;;;5.88;71.41
68654;BME280;55636;51.108;13.622;2023-02-13T05:51:41;102516.28;;;5.88;71.33
68654;BME280;55636;51.108;13.622;2023-02-13T05:52:44;102512.69;;;5.87;71.36
68654;BME280;55636;51.108;13.622;2023-02-13T05:53:47;102515.44;;;5.87;71.25
68654;BME280;55636;51.108;13.622;2023-02-13T05:54:50;102513.53;;;5.88;71.35
68654;BME280;55636;51.108;13.622;2023-02-13T05:55:52;102514.38;;;5.88;71.35
68654;BME280;55636;51.108;13.622;2023-02-13T05:56:54;102515.44;;;5.87;71.26
68654;BME280;55636;51.108;13.622;2023-02-13T05:57:57;102520.72;;;5.89;71.20
68654;BME280;55636;51.108;13.622;2023-02-13T05:58:59;102513.53;;;5.88;71.10
68654;BME280;55636;51.108;13.622;2023-02-13T06:00:04;102519.84;;;5.88;71.06
68654;BME280;55636;51.108;13.622;2023-02-13T06:01:06;102509.06;;;5.87;71.11
68654;BME280;55636;51.108;13.622;2023-02-13T06:02:08;102518.16;;;5.87;71.02
68654;BME280;55636;51.108;13.622;2023-02-13T06:03:11;102517.28;;;5.87;71.14
68654;BME280;55636;51.108;13.622;2023-02-13T06:04:14;102520.03;;;5.87;71.15
68654;BME280;55636;51.108;13.622;2023-02-13T06:05:17;102517.28;;;5.87;71.14
68654;BME280;55636;51.108;13.622;2023-02-13T06:06:19;102524.69;;;5.86;71.21
68654;BME280;55636;51.108;13.622;2023-02-13T06:07:22;102513.72;;;5.86;71.18
68654;BME280;55636;51.108;13.622;2023-02-13T06:08:25;102521.06;;;5.86;71.24
68654;BME280;55636;51.108;13.622;2023-02-13T06:09:27;102521.94;;;5.86;71.19
68654;BME280;55636;51.108;13.622;2023-02-13T06:10:31;102512.84;;;5.86;71.17
68654;BME280;55636;51.108;13.622;2023-02-13T06:11:33;102516.44;;;5.86;71.13
68654;BME280;55636;51.108;13.622;2023-02-13T06:12:37;102515.56;;;5.86;71.12
68654;BME280;55636;51.108;13.622;2023-02-13T06:13:39;102509.25;;;5.85;71.09
68654;BME280;55636;51.108;13.622;2023-02-13T06:14:42;102516.44;;;5.86;71.08
68654;BME280;55636;51.108;13.622;2023-02-13T06:15:45;102516.44;;;5.86;70.99
68654;BME280;55636;51.108;13.622;2023-02-13T06:16:47;102521.06;;;5.86;70.94
68654;BME280;55636;51.108;13.622;2023-02-13T06:17:53;102524.88;;;5.85;70.96
68654;BME280;55636;51.108;13.622;2023-02-13T06:18:58;102522.97;;;5.85;70.96
68654;BME280;55636;51.108;13.622;2023-02-13T06:20:00;102522.97;;;5.85;70.98
68654;BME280;55636;51.108;13.622;2023-02-13T06:21:05;102517.47;;;5.85;70.91
68654;BME280;55636;51.108;13.622;2023-02-13T06:22:07;102522.13;;;5.85;70.92
68654;BME280;55636;51.108;13.622;2023-02-13T06:23:09;102525.72;;;5.85;70.95
68654;BME280;55636;51.108;13.622;2023-02-13T06:24:12;102533.09;;;5.85;70.93
68654;BME280;55636;51.108;13.622;2023-02-13T06:25:15;102530.34;;;5.85;70.92
68654;BME280;55636;51.108;13.622;2023-02-13T06:26:17;102527.59;;;5.85;70.84